Αναφορές METAR από Ελληνικά Αεροδρόμια

Σε αυτή τη σελίδα, μπορείτε να παρακολουθείτε τις αναφορές METAR που προέρχονται από τα κυριότερα αεροδρόμια της Ελλάδας. Το περιεχόμενο αποκωδικοποιείται, οπτικοποιείται και γίνεται κατανοητό από τον καθένα με τη χρήση του όμορφου δίγλωσσου γραφικού περιβάλλοντος του meteothes.gr!

Η αρχική κωδικοποιημένη αναφορά, συμπεριλαμβάνεται επίσης στο κάτω μέρος. Σε όποια καθεστερεί η ενημέρωση, το προειδοποιητικό μήνυμα "Μη ενημερωμένο METAR!" εμφανίζεται στο πάνω μέρος της με κόκκινα γράμματα.

Εχουν προστεθεί επίσης δύο αεροδρόμια από γειτονικές χώρες, την Οχρίδα(ΠΓΔΜ) και την Σόφια(Βουλγαρία) για να ελέγχουμε την εξέλιξη των ψυχρών εισβολών από τα Βόρεια!

LGTS - Thessaloniki/Makedonia-Elev 7m
Distance from station: Ν 13km
Ενημερώθηκε: 19/06/2024 10:50
Αίθριος
Αίθριος
 Ανεμος από ΔΒΔ
Ανεμος: ΔΒΔ 11 km/h
Θερμοκρασία: 29°C
Δείκτη Δυσφορίας: 30°C
Σημ. Δρόσου: 19°C
Υγρασία: 55%
Βαρόμετρο: 1018 hPa
Συνθήκες: Αίθριος
Ορατότητα: πάνω από 10 km
2024/06/19 07:50 LGTS 190750Z 30006KT CAVOK 29/19 Q1018 NOSIG
LGAV - Athens/Elef. Venizelos-Elev 94m
Distance from station: ΝΝΑ 312km
Ενημερώθηκε: 19/06/2024 10:50
Αίθριος
Αίθριος
 Ανεμος από ΒΒΑ
Ανεμος: ΒΒΑ 37 km/h, Ριπή: 56 km/h
Θερμοκρασία: 33°C
Σημ. Δρόσου: 7°C
Υγρασία: 20%
Βαρόμετρο: 1014 hPa
Συνθήκες: Αίθριος
Ορατότητα: πάνω από 10 km
2024/06/19 07:50 LGAV 190750Z 03020G30KT CAVOK 33/07 Q1014 NOSIG
 
LGAL - Alexandroupolis-Elev 3m
Distance from station: Α 251km
Ενημερώθηκε: 19/06/2024 10:50
Αίθριος
Αίθριος
 Ανεμος από ΒΑ
Ανεμος: ΒΑ 26 km/h
Θερμοκρασία: 31°C
Σημ. Δρόσου: 14°C
Υγρασία: 35%
Βαρόμετρο: 1017 hPa
Συνθήκες: Αίθριος
Ορατότητα: πάνω από 10 km
2024/06/19 07:50 LGAL 190750Z 05014KT CAVOK 31/14 Q1017
LGKV - Kavala/Crysoupolis-Elev 5m
Distance from station: ΑΒΑ 144km
Ενημερώθηκε: 19/06/2024 10:50
Αίθριος
Αίθριος
 Ανεμος από ΑΝΑ
Ανεμος: ΑΝΑ 6 km/h
Θερμοκρασία: 31°C
Δείκτη Δυσφορίας: 31°C
Σημ. Δρόσου: 16°C
Υγρασία: 40%
Βαρόμετρο: 1017 hPa
Συνθήκες: Αίθριος
Ορατότητα: πάνω από 10 km
2024/06/19 07:50 LGKV 190750Z 11003KT CAVOK 31/16 Q1017
 
LGSK - Skiathos Island-Elev 15m
Distance from station: ΝΝΑ 168km
Ενημερώθηκε: 19/06/2024 10:50
Αίθριος
Αίθριος
 Ανεμος από Β
Ανεμος: Β 20 km/h
Θερμοκρασία: 30°C
Δείκτη Δυσφορίας: 31°C
Σημ. Δρόσου: 17°C
Υγρασία: 46%
Βαρόμετρο: 1016 hPa
Συνθήκες: Αίθριος
Ορατότητα: πάνω από 10 km
2024/06/19 07:50 LGSK 190750Z 36011KT CAVOK 30/17 Q1016
LGLM - Limnos Island-Elev 5m
Distance from station: ΑΝΑ 210km
Ενημερώθηκε: 19/06/2024 10:50
Αίθριος
Αίθριος
 Ανεμος από ΒΑ
Ανεμος: ΒΑ 28 km/h, Ριπή: 46 km/h
Θερμοκρασία: 27°C
Δείκτη Δυσφορίας: 28°C
Σημ. Δρόσου: 17°C
Υγρασία: 54%
Βαρόμετρο: 1016 hPa
Συνθήκες: Αίθριος
Ορατότητα: πάνω από 10 km
2024/06/19 07:50 LGLM 190750Z 04015G25KT CAVOK 27/17 Q1016
 
LGMT - Mitilini Island-Elev 17m
Distance from station: ΑΝΑ 358km
Ενημερώθηκε: 19/06/2024 10:50
Αίθριος
Αίθριος
 Ανεμος από ΒΒΔ
Ανεμος: ΒΒΔ 20 km/h
Θερμοκρασία: 31°C
Δείκτη Δυσφορίας: 33°C
Σημ. Δρόσου: 19°C
Υγρασία: 49%
Βαρόμετρο: 1013 hPa
Συνθήκες: Αίθριος
Ορατότητα: πάνω από 10 km
2024/06/19 07:50 LGMT 190750Z 33011KT 270V360 CAVOK 31/19 Q1013
LGSY - Skiros Island-Elev 15m
Distance from station: ΝΑ 227km
Ενημερώθηκε: 19/06/2024 10:50
Αίθριος
Αίθριος
 Ανεμος από Β
Ανεμος: Β 26 km/h
Θερμοκρασία: 27°C
Δείκτη Δυσφορίας: 28°C
Σημ. Δρόσου: 18°C
Υγρασία: 58%
Βαρόμετρο: 1015 hPa
Συνθήκες: Αίθριος
Ορατότητα: πάνω από 10 km
2024/06/19 07:50 LGSY 190750Z 01014KT CAVOK 27/18 Q1015 BLU
 
LGKZ - Kozani-Elev 628m
Distance from station: ΔΝΔ 102km
Ενημερώθηκε: 19/06/2024 10:50
Αίθριος
Αίθριος
 Ανεμος από άπνοια
Ανεμος: άπνοια
Θερμοκρασία: 30°C
Σημ. Δρόσου: 10°C
Υγρασία: 29%
Βαρόμετρο: 1021 hPa
Συνθήκες: Αίθριος
Ορατότητα: πάνω από 10 km
2024/06/19 07:50 LGKZ 190750Z 00000KT CAVOK 30/10 Q1021
LGIO - Ioannina-Elev 476m
Distance from station: ΔΝΔ 209km
Ενημερώθηκε: 19/06/2024 10:50
Αίθριος
Αίθριος
 Ανεμος από μεταβλητός
Ανεμος: μεταβλητός 6 km/h
Θερμοκρασία: 30°C
Δείκτη Δυσφορίας: 31°C
Σημ. Δρόσου: 18°C
Υγρασία: 49%
Βαρόμετρο: 1019 hPa
Συνθήκες: Αίθριος
Ορατότητα: πάνω από 10 km
2024/06/19 07:50 LGIO 190750Z VRB03KT CAVOK 30/18 Q1019
 
LGZA - Zakinthos-Elev 3m
Distance from station: ΝΝΔ 367km
Ενημερώθηκε: 19/06/2024 10:50
Αίθριος
Αίθριος
 Ανεμος από Β
Ανεμος: Β 19 km/h
Θερμοκρασία: 33°C
Σημ. Δρόσου: 17°C
Υγρασία: 38%
Βαρόμετρο: 1015 hPa
Συνθήκες: Αίθριος
Ορατότητα: πάνω από 10 km
2024/06/19 07:50 LGZA 190750Z 36010KT CAVOK 33/17 Q1015
LGKR - Corfu Island-Elev 2m
Distance from station: ΔΝΔ 282km
Ενημερώθηκε: 19/06/2024 10:50
Αίθριος
Αίθριος
 Ανεμος από ΝΑ
Ανεμος: ΝΑ 7 km/h
Θερμοκρασία: 31°C
Δείκτη Δυσφορίας: 33°C
Σημ. Δρόσου: 20°C
Υγρασία: 52%
Βαρόμετρο: 1015 hPa
Συνθήκες: Αίθριος
Ορατότητα: πάνω από 10 km
2024/06/19 07:50 LGKR 190750Z 14004KT CAVOK 31/20 Q1015 NOSIG
 
LGSO - Syros Island-Elev 72m
Distance from station: ΝΝΑ 397km
Ενημερώθηκε: 19/06/2024 10:50
Διάσπαρτα Nέφη
Διάσπαρτα Nέφη
 Ανεμος από Β
Ανεμος: Β 44 km/h, Ριπή: 69 km/h
Θερμοκρασία: 28°C
Δείκτη Δυσφορίας: 28°C
Σημ. Δρόσου: 16°C
Υγρασία: 48%
Βαρόμετρο: 1012 hPa
Νέφωση: Διάσπαρτα Nέφη
Ορατότητα: 10 km
Λεπτομέρειες Νεφών: Διάσπαρτα Nέφη 549 m
2024/06/19 07:50 LGSO 190750Z 36024G37KT 9999 FEW018 28/16 Q1012
LGMK - Mikonos Island-Elev 123m
Distance from station: ΝΝΑ 412km
Ενημερώθηκε: 19/06/2024 10:50
Αίθριος
Αίθριος
 Ανεμος από Β
Ανεμος: Β 43 km/h, Ριπή: 61 km/h
Θερμοκρασία: 26°C
Σημ. Δρόσου: 15°C
Υγρασία: 51%
Βαρόμετρο: 1011 hPa
Συνθήκες: Αίθριος
Ορατότητα: πάνω από 10 km
2024/06/19 07:50 LGMK 190750Z 01023G33KT CAVOK 26/15 Q1011
 
LGSR - Santorini Island-Elev 40m
Distance from station: ΝΝΑ 520km
Ενημερώθηκε: 19/06/2024 10:50
Αίθριος
Αίθριος
 Ανεμος από ΒΒΔ
Ανεμος: ΒΒΔ 24 km/h
Θερμοκρασία: 28°C
Δείκτη Δυσφορίας: 29°C
Σημ. Δρόσου: 19°C
Υγρασία: 58%
Βαρόμετρο: 1011 hPa
Συνθήκες: Αίθριος
Ορατότητα: πάνω από 10 km
2024/06/19 07:50 LGSR 190750Z 34013KT CAVOK 28/19 Q1011
LGKL - Kalamata-Elev 8m
Distance from station: Ν 405km
Ενημερώθηκε: 19/06/2024 10:50
Αίθριος
Αίθριος
 Ανεμος από ΒΒΔ
Ανεμος: ΒΒΔ 13 km/h
Θερμοκρασία: 36°C
Σημ. Δρόσου: 14°C
Υγρασία: 27%
Βαρόμετρο: 1013 hPa
Συνθήκες: Αίθριος
Ορατότητα: πάνω από 10 km
2024/06/19 07:50 LGKL 190750Z 33007KT CAVOK 36/14 Q1013
 
LGIR - Iraklion/Crete-Elev 5m
Distance from station: ΝΝΑ 622km
Ενημερώθηκε: 19/06/2024 10:50
Αίθριος
Αίθριος
 Ανεμος από ΒΔ
Ανεμος: ΒΔ 31 km/h
Θερμοκρασία: 28°C
Δείκτη Δυσφορίας: 29°C
Σημ. Δρόσου: 19°C
Υγρασία: 58%
Βαρόμετρο: 1012 hPa
Συνθήκες: Αίθριος
Ορατότητα: πάνω από 10 km
2024/06/19 07:50 LGIR 190750Z 31017KT CAVOK 28/19 Q1012 NOSIG
LGRP - Rhodes-Elev 5m
Distance from station: ΝΑ 649km
Ενημερώθηκε: 19/06/2024 10:50
Αίθριος
Αίθριος
 Ανεμος από ΔΝΔ
Ανεμος: ΔΝΔ 20 km/h
Θερμοκρασία: 29°C
Δείκτη Δυσφορίας: 32°C
Σημ. Δρόσου: 23°C
Υγρασία: 70%
Βαρόμετρο: 1007 hPa
Συνθήκες: Αίθριος
Ορατότητα: πάνω από 10 km
2024/06/19 07:50 LGRP 190750Z 25011KT CAVOK 29/23 Q1007 NOSIG
 
LWOH - Ohrid/FYROM-Elev 761m
Distance from station: ΔΒΔ 188km
Ενημερώθηκε: 19/06/2024 10:50
Διάσπαρτα Nέφη
Διάσπαρτα Nέφη
 Ανεμος από ΝΝΑ
Ανεμος: ΝΝΑ 9 km/h
Θερμοκρασία: 25°C
Σημ. Δρόσου: 18°C
Υγρασία: 65%
Βαρόμετρο: 1021 hPa
Νέφωση: Διάσπαρτα Nέφη
Ορατότητα: 10 km
Λεπτομέρειες Νεφών: Διάσπαρτα Nέφη 1189 m
2024/06/19 07:50 LWOH 190750Z 15005KT 9999 FEW039 25/18 Q1021
LBSF - Sofia/Bulgaria-Elev 595m
Distance from station: Β 227km
Ενημερώθηκε: 19/06/2024 11:00
Αίθριος
Αίθριος
 Ανεμος από Ν
Ανεμος: Ν 7 km/h
Θερμοκρασία: 27°C
Δείκτη Δυσφορίας: 28°C
Σημ. Δρόσου: 16°C
Υγρασία: 51%
Βαρόμετρο: 1021 hPa
Συνθήκες: Αίθριος
Ορατότητα: πάνω από 10 km
2024/06/19 08:00 LBSF 190800Z 17004KT 100V240 CAVOK 27/16 Q1021 NOSIG

(*) Μερικές αναφορές παρουσιάζουν λιγότερα στοιχεία γιατί οι αρχικές είναι ελλιπείς ή έχουν λάθος μορφοποίηση!